Xunlong5 — BYGW — position and weather

sailwx.info

Track history (hours):
 
Tides and Currents Weather Stations Pressure Air Temp Water Temp Dewpoint Dewpoint Depression Visibility Wind Speed Wind Dir Waves Ship Positions

Xunlong5

Last reported at 2015-Apr-19 17:31 UTC. Time now 2015-Apr-19 17:38 UTC.
Position N 22°29' E 113°54'.

Length 34 m; draft 1.4 m.

Type: High speed craft. MMSI: 413471870.

Date/timePositionNaut miles runAvg speedWind from/ knotsBaromVisibWave heightAir tempDewpointWater temp
2015-Apr-19 17:31N 22°29' E 113°54'0 0.0
2015-Apr-19 16:30N 22°29' E 113°54'0 0.0
2015-Apr-19 15:30N 22°29' E 113°54'0 0.0
2015-Apr-19 14:24N 22°29' E 113°54'0 0.0
2015-Apr-19 13:24N 22°29' E 113°54'0 0.0
2015-Apr-19 12:25N 22°29' E 113°54'0 0.0
2015-Apr-19 11:30N 22°29' E 113°54'0 0.0
2015-Apr-19 10:30N 22°29' E 113°54'0 0.0
2015-Apr-19 09:31N 22°29' E 113°54'1918.2
2015-Apr-19 08:27N 22°14' E 113°41'6 6.5
2015-Apr-19 07:34N 22°11' E 113°36'2524.9
2015-Apr-19 06:33N 22°29' E 113°55'4 3.6
2015-Apr-19 05:33N 22°25' E 113°53'2318.6
2015-Apr-19 04:19N 22°10' E 113°35'2222.3
2015-Apr-19 03:20N 22°24' E 113°53'5 6.0
2015-Apr-19 02:33N 22°29' E 113°55'0 0.0
2015-Apr-19 01:29N 22°29' E 113°55'0 0.1
2015-Apr-19 00:29N 22°29' E 113°54'0 0.1
2015-Apr-18 23:29N 22°29' E 113°55'0 0.0
2015-Apr-18 22:29N 22°29' E 113°55'0 0.0
2015-Apr-18 21:29N 22°29' E 113°55'0 0.0
2015-Apr-18 20:29N 22°29' E 113°55'0 0.0
2015-Apr-18 19:29N 22°29' E 113°55'0 0.0
2015-Apr-18 18:29N 22°29' E 113°55'0 0.0
2015-Apr-18 17:23N 22°29' E 113°55'0 0.0
2015-Apr-18 16:29N 22°29' E 113°55'0 0.0
2015-Apr-18 15:29N 22°29' E 113°55'0 0.0
2015-Apr-18 14:29N 22°29' E 113°55'0 0.0
2015-Apr-18 13:29N 22°29' E 113°55'0 0.0
2015-Apr-18 12:29N 22°29' E 113°55'0 0.0
2015-Apr-18 11:29N 22°29' E 113°55'0 0.0
2015-Apr-18 10:29N 22°29' E 113°55'0 0.1
2015-Apr-18 09:34N 22°29' E 113°55'2019.6
2015-Apr-18 08:33N 22°15' E 113°39'4 3.9
2015-Apr-18 07:33N 22°12' E 113°39'2222.1
2015-Apr-18 06:33N 22°29' E 113°55'5 5.4
2015-Apr-18 05:33N 22°24' E 113°52'2121.1
2015-Apr-18 04:33N 22°10' E 113°35'2220.0
2015-Apr-18 03:28N 22°24' E 113°52'5 5.6
2015-Apr-18 02:33N 22°29' E 113°55'0 0.0
2015-Apr-18 01:33N 22°29' E 113°55'0 0.0
2015-Apr-18 00:27N 22°29' E 113°55'0 0.0
2015-Apr-17 23:33N 22°29' E 113°55'0 0.0
2015-Apr-17 22:33N 22°29' E 113°55'0 0.0
2015-Apr-17 21:33N 22°29' E 113°55'0 0.0
2015-Apr-17 20:33N 22°29' E 113°55'0 0.0
2015-Apr-17 19:33N 22°29' E 113°55'0 0.0
2015-Apr-17 18:33N 22°29' E 113°55'0 0.0
2015-Apr-17 17:27N 22°29' E 113°55'0 0.0
2015-Apr-17 16:27N 22°29' E 113°55'0 0.0
2015-Apr-17 15:33N 22°29' E 113°55'0 0.0
2015-Apr-17 14:33N 22°29' E 113°55'0 0.0
2015-Apr-17 13:33N 22°29' E 113°55'0 0.0
2015-Apr-17 12:33N 22°29' E 113°55'0 0.0
2015-Apr-17 11:33N 22°29' E 113°55'0 0.0
2015-Apr-17 10:27N 22°29' E 113°55'0 0.0
2015-Apr-17 09:33N 22°29' E 113°55'1917.7
2015-Apr-17 08:27N 22°14' E 113°41'4 4.4
2015-Apr-17 07:34N 22°11' E 113°38'2323.2
2015-Apr-17 06:33N 22°29' E 113°55'0 0.4
2015-Apr-17 05:34N 22°28' E 113°55'2625.6
2015-Apr-17 04:33N 22°10' E 113°35'1514.7
2015-Apr-17 03:33N 22°19' E 113°47'1211.5
2015-Apr-17 02:32N 22°29' E 113°55'1310.1
2015-Apr-17 01:15N 22°20' E 114°05'0 0.6
2015-Apr-17 00:33N 22°20' E 114°05'1312.8
2015-Apr-16 23:31N 22°29' E 113°55'0 0.1
2015-Apr-16 22:30N 22°29' E 113°55'0 0.0
2015-Apr-16 21:29N 22°29' E 113°55'0 0.0
2015-Apr-16 20:29N 22°29' E 113°55'0 0.0
2015-Apr-16 19:29N 22°29' E 113°55'0 0.0
2015-Apr-16 18:29N 22°29' E 113°55'0 0.0
2015-Apr-16 17:29N 22°29' E 113°55'0 0.0
2015-Apr-16 16:29N 22°29' E 113°55'0 0.0
2015-Apr-16 15:29N 22°29' E 113°55'0 0.0
2015-Apr-16 14:30N 22°29' E 113°55'0 0.0
2015-Apr-16 13:33N 22°29' E 113°55'0 0.0
2015-Apr-16 11:34N 22°29' E 113°55'0 0.1
2015-Apr-16 10:34N 22°29' E 113°55'0 0.0
2015-Apr-16 09:33N 22°29' E 113°55'1917.2
2015-Apr-16 08:26N 22°14' E 113°41'5 5.8
2015-Apr-16 07:33N 22°11' E 113°37'2424.3
2015-Apr-16 06:33N 22°29' E 113°55'4 4.1
2015-Apr-16 05:34N 22°25' E 113°53'2322.6
2015-Apr-16 04:33N 22°10' E 113°35'1515.2
2015-Apr-16 03:33N 22°19' E 113°47'1111.4
2015-Apr-16 02:33N 22°29' E 113°55'10 8.6
2015-Apr-16 01:22N 22°21' E 114°02'5 6.0
2015-Apr-16 00:34N 22°19' E 114°07'1514.9
2015-Apr-15 23:34N 22°29' E 113°55'0 0.0
2015-Apr-15 22:33N 22°29' E 113°55'0 0.0
2015-Apr-15 21:32N 22°29' E 113°55'0 0.0
2015-Apr-15 20:33N 22°29' E 113°55'0 0.0
2015-Apr-15 19:33N 22°29' E 113°55'0 0.0
2015-Apr-15 18:34N 22°29' E 113°55'0 0.0
2015-Apr-15 17:34N 22°29' E 113°55'0 0.0
2015-Apr-15 16:34N 22°29' E 113°55'0 0.0
2015-Apr-15 15:33N 22°29' E 113°55'0 0.0
2015-Apr-15 14:33N 22°29' E 113°55'5 3.7
2015-Apr-15 13:14N 22°24' E 113°54'5 7.2
2015-Apr-15 12:33N 22°29' E 113°55'2018.2
2015-Apr-15 11:29N 22°14' E 113°41'3 3.7
2015-Apr-15 10:33N 22°12' E 113°38'2322.6
2015-Apr-15 09:33N 22°29' E 113°55'1 0.9
2015-Apr-15 08:34N 22°28' E 113°55'2625.5
2015-Apr-15 07:33N 22°10' E 113°35'1515.0
2015-Apr-15 06:33N 22°19' E 113°47'1211.5
2015-Apr-15 05:33N 22°29' E 113°55'0 0.1
2015-Apr-15 04:33N 22°29' E 113°55'1817.9
2015-Apr-15 03:34N 22°17' E 114°09'1615.9
2015-Apr-15 02:32N 22°26' E 113°54'12 9.1
2015-Apr-15 01:13N 22°20' E 114°05'1 1.3
2015-Apr-15 00:34N 22°19' E 114°06'1414.2
2015-Apr-14 23:34N 22°29' E 113°55'0 0.0
2015-Apr-14 22:33N 22°29' E 113°55'0 0.0
2015-Apr-14 21:34N 22°29' E 113°55'0 0.0
2015-Apr-14 20:33N 22°29' E 113°55'0 0.0
2015-Apr-14 19:33N 22°29' E 113°55'0 0.0
2015-Apr-14 18:33N 22°29' E 113°55'0 0.0
2015-Apr-14 17:33N 22°29' E 113°55'0 0.0
2015-Apr-14 16:34N 22°29' E 113°55'0 0.0
2015-Apr-14 15:33N 22°29' E 113°55'0 0.0
2015-Apr-14 14:34N 22°29' E 113°55'5 3.4
2015-Apr-14 13:09N 22°24' E 113°54'5 8.1
2015-Apr-14 12:33N 22°29' E 113°55'1817.3
2015-Apr-14 11:32N 22°14' E 113°43'5 5.6
2015-Apr-14 10:33N 22°12' E 113°38'2322.7
2015-Apr-14 09:33N 22°29' E 113°55'0 0.3
2015-Apr-14 08:34N 22°28' E 113°55'2625.8
2015-Apr-14 07:33N 22°10' E 113°35'2218.0
2015-Apr-14 06:21N 22°25' E 113°53'1311.8
2015-Apr-14 05:16N 22°20' E 114°05'3 4.0
2015-Apr-14 04:33N 22°19' E 114°08'1615.8
2015-Apr-14 03:33N 22°29' E 113°55'2322.7
2015-Apr-14 02:33N 22°12' E 113°39'3 3.1
2015-Apr-14 01:33N 22°13' E 113°41'2019.7
2015-Apr-14 00:33N 22°29' E 113°55'0 0.1
2015-Apr-13 23:33N 22°29' E 113°55'0 0.0
2015-Apr-13 22:33N 22°29' E 113°55'0 0.0
2015-Apr-13 21:33N 22°29' E 113°55'0 0.0
2015-Apr-13 20:33N 22°29' E 113°55'0 0.0
2015-Apr-13 19:33N 22°29' E 113°55'0 0.0
2015-Apr-13 18:33N 22°29' E 113°55'0 0.0
2015-Apr-13 17:33N 22°29' E 113°55'0 0.0
2015-Apr-13 16:33N 22°29' E 113°55'0 0.0
2015-Apr-13 15:33N 22°29' E 113°55'0 0.0
2015-Apr-13 14:33N 22°29' E 113°55'0 0.0
2015-Apr-13 13:33N 22°29' E 113°55'0 0.0
2015-Apr-13 12:33N 22°29' E 113°55'0 0.0
2015-Apr-13 11:33N 22°29' E 113°55'0 0.0
2015-Apr-13 10:33N 22°29' E 113°55'0 0.0
2015-Apr-13 09:33N 22°29' E 113°55'1917.3
2015-Apr-13 08:27N 22°14' E 113°42'6 7.2
2015-Apr-13 07:33N 22°11' E 113°36'2525.2
2015-Apr-13 06:33N 22°29' E 113°55'1 1.1
2015-Apr-13 05:34N 22°28' E 113°55'2525.0
2015-Apr-13 04:33N 22°10' E 113°35'1212.2
2015-Apr-13 03:33N 22°17' E 113°46'1414.2
2015-Apr-13 02:33N 22°29' E 113°55'1410.0
2015-Apr-13 01:12N 22°20' E 114°05'1 1.8
2015-Apr-13 00:33N 22°19' E 114°07'1513.4
2015-Apr-12 23:28N 22°29' E 113°55'0 0.0
2015-Apr-12 22:28N 22°29' E 113°55'0 0.0
2015-Apr-12 21:28N 22°29' E 113°55'0 0.0
2015-Apr-12 20:28N 22°29' E 113°55'0 0.0
2015-Apr-12 19:28N 22°29' E 113°55'0 0.0
2015-Apr-12 18:28N 22°29' E 113°55'0 0.0
2015-Apr-12 17:28N 22°29' E 113°55'0 0.0
2015-Apr-12 16:28N 22°29' E 113°55'0 0.0
2015-Apr-12 15:28N 22°29' E 113°55'0 0.0
2015-Apr-12 14:28N 22°29' E 113°55'6 5.5
2015-Apr-12 13:18N 22°22' E 113°55'6 8.4
2015-Apr-12 12:33N 22°29' E 113°55'1717.4
2015-Apr-12 11:32N 22°14' E 113°44'6 6.0
2015-Apr-12 10:33N 22°12' E 113°38'2322.7
2015-Apr-12 09:33N 22°29' E 113°55'5 4.5
2015-Apr-12 08:33N 22°24' E 113°53'2220.5
2015-Apr-12 07:28N 22°10' E 113°35'1516.2
2015-Apr-12 06:33N 22°19' E 113°47'1412.2
2015-Apr-12 05:26N 22°21' E 114°02'3 3.6
2015-Apr-12 04:33N 22°20' E 114°05'1313.2
2015-Apr-12 03:33N 22°29' E 113°55'2322.0
2015-Apr-12 02:31N 22°12' E 113°38'5 5.1
2015-Apr-12 01:33N 22°14' E 113°43'1816.6
2015-Apr-12 00:28N 22°29' E 113°55'0 0.0
2015-Apr-11 23:28N 22°29' E 113°55'0 0.0
2015-Apr-11 22:22N 22°29' E 113°55'0 0.0
2015-Apr-11 21:28N 22°29' E 113°55'0 0.0
2015-Apr-11 20:28N 22°29' E 113°55'0 0.0
2015-Apr-11 19:28N 22°29' E 113°55'0 0.0
2015-Apr-11 18:22N 22°29' E 113°55'0 0.0
2015-Apr-11 17:28N 22°29' E 113°55'0 0.0
2015-Apr-11 16:28N 22°29' E 113°55'0 0.0
2015-Apr-11 15:28N 22°29' E 113°55'0 0.0
2015-Apr-11 14:28N 22°29' E 113°55'7 5.7
2015-Apr-11 13:18N 22°22' E 113°55'7 8.9
2015-Apr-11 12:33N 22°29' E 113°55'1817.6
2015-Apr-11 11:33N 22°14' E 113°44'8 8.3
2015-Apr-11 10:33N 22°11' E 113°36'2525.3
2015-Apr-11 09:33N 22°29' E 113°55'3 2.6
2015-Apr-11 08:33N 22°26' E 113°54'2423.9
2015-Apr-11 07:33N 22°10' E 113°35'1514.9
2015-Apr-11 06:33N 22°19' E 113°47'1712.6
2015-Apr-11 05:15N 22°20' E 114°05'2 3.0
2015-Apr-11 04:33N 22°19' E 114°07'1514.5
2015-Apr-11 03:34N 22°28' E 113°55'2525.1
2015-Apr-11 02:33N 22°11' E 113°36'1212.3
2015-Apr-11 01:33N 22°18' E 113°46'1313.2
2015-Apr-11 00:34N 22°29' E 113°55'0 0.1
2015-Apr-10 23:31N 22°29' E 113°55'0 0.0
2015-Apr-10 22:30N 22°29' E 113°55'0 0.0
2015-Apr-10 21:30N 22°29' E 113°55'0 0.0
2015-Apr-10 20:31N 22°29' E 113°55'0 0.0
2015-Apr-10 19:30N 22°29' E 113°55'0 0.0
2015-Apr-10 18:30N 22°29' E 113°55'0 0.0
2015-Apr-10 17:30N 22°29' E 113°55'0 0.0
2015-Apr-10 16:31N 22°29' E 113°55'0 0.0
2015-Apr-10 15:30N 22°29' E 113°55'0 0.0
2015-Apr-10 14:30N 22°29' E 113°55'1313.5
2015-Apr-10 13:33N 22°18' E 113°46'1211.9
2015-Apr-10 12:34N 22°11' E 113°37'2524.5
2015-Apr-10 11:33N 22°29' E 113°55'1919.0
2015-Apr-10 10:33N 22°13' E 113°43'5 4.7
2015-Apr-10 09:33N 22°11' E 113°38'2323.1
2015-Apr-10 08:33N 22°29' E 113°55'1817.6
2015-Apr-10 07:33N 22°14' E 113°44'5 5.1
2015-Apr-10 06:34N 22°12' E 113°39'2222.3
2015-Apr-10 05:34N 22°29' E 113°55'1817.9
2015-Apr-10 04:33N 22°14' E 113°43'6 5.9
2015-Apr-10 03:34N 22°11' E 113°38'2423.4
2015-Apr-10 02:33N 22°29' E 113°55'0 0.1
2015-Apr-10 01:31N 22°29' E 113°55'0 0.0
2015-Apr-10 00:31N 22°29' E 113°55'0 0.0
2015-Apr-09 23:31N 22°29' E 113°55'0 0.0
2015-Apr-09 22:31N 22°29' E 113°55'0 0.0
2015-Apr-09 21:31N 22°29' E 113°55'0 0.0
2015-Apr-09 20:31N 22°29' E 113°55'0 0.0
2015-Apr-09 19:31N 22°29' E 113°55'0 0.0
2015-Apr-09 18:31N 22°29' E 113°55'0 0.0
2015-Apr-09 17:31N 22°29' E 113°55'  
Track history (hours):
 
Tides and Currents Weather Stations Pressure Air Temp Water Temp Dewpoint Dewpoint Depression Visibility Wind Speed Wind Dir Waves Ship Positions

Xunlong5

Last reported at 2015-Apr-19 17:31 UTC. Time now 2015-Apr-19 17:38 UTC.
Position N 22°29' E 113°54'.

Length 34 m; draft 1.4 m.

Type: High speed craft. MMSI: 413471870.

Date/timePositionNaut miles runAvg speedWind from/ knotsBaromVisibWave heightAir tempDewpointWater temp
2015-Apr-19 17:31N 22°29' E 113°54'0 0.0
2015-Apr-19 16:30N 22°29' E 113°54'0 0.0
2015-Apr-19 15:30N 22°29' E 113°54'0 0.0
2015-Apr-19 14:24N 22°29' E 113°54'0 0.0
2015-Apr-19 13:24N 22°29' E 113°54'0 0.0
2015-Apr-19 12:25N 22°29' E 113°54'0 0.0
2015-Apr-19 11:30N 22°29' E 113°54'0 0.0
2015-Apr-19 10:30N 22°29' E 113°54'0 0.0
2015-Apr-19 09:31N 22°29' E 113°54'1918.2
2015-Apr-19 08:27N 22°14' E 113°41'6 6.5
2015-Apr-19 07:34N 22°11' E 113°36'2524.9
2015-Apr-19 06:33N 22°29' E 113°55'4 3.6
2015-Apr-19 05:33N 22°25' E 113°53'2318.6
2015-Apr-19 04:19N 22°10' E 113°35'2222.3
2015-Apr-19 03:20N 22°24' E 113°53'5 6.0
2015-Apr-19 02:33N 22°29' E 113°55'0 0.0
2015-Apr-19 01:29N 22°29' E 113°55'0 0.1
2015-Apr-19 00:29N 22°29' E 113°54'0 0.1
2015-Apr-18 23:29N 22°29' E 113°55'0 0.0
2015-Apr-18 22:29N 22°29' E 113°55'0 0.0
2015-Apr-18 21:29N 22°29' E 113°55'0 0.0
2015-Apr-18 20:29N 22°29' E 113°55'0 0.0
2015-Apr-18 19:29N 22°29' E 113°55'0 0.0
2015-Apr-18 18:29N 22°29' E 113°55'0 0.0
2015-Apr-18 17:23N 22°29' E 113°55'0 0.0
2015-Apr-18 16:29N 22°29' E 113°55'0 0.0
2015-Apr-18 15:29N 22°29' E 113°55'0 0.0
2015-Apr-18 14:29N 22°29' E 113°55'0 0.0
2015-Apr-18 13:29N 22°29' E 113°55'0 0.0
2015-Apr-18 12:29N 22°29' E 113°55'0 0.0
2015-Apr-18 11:29N 22°29' E 113°55'0 0.0
2015-Apr-18 10:29N 22°29' E 113°55'0 0.1
2015-Apr-18 09:34N 22°29' E 113°55'2019.6
2015-Apr-18 08:33N 22°15' E 113°39'4 3.9
2015-Apr-18 07:33N 22°12' E 113°39'2222.1
2015-Apr-18 06:33N 22°29' E 113°55'5 5.4
2015-Apr-18 05:33N 22°24' E 113°52'2121.1
2015-Apr-18 04:33N 22°10' E 113°35'2220.0
2015-Apr-18 03:28N 22°24' E 113°52'5 5.6
2015-Apr-18 02:33N 22°29' E 113°55'0 0.0
2015-Apr-18 01:33N 22°29' E 113°55'0 0.0
2015-Apr-18 00:27N 22°29' E 113°55'0 0.0
2015-Apr-17 23:33N 22°29' E 113°55'0 0.0
2015-Apr-17 22:33N 22°29' E 113°55'0 0.0
2015-Apr-17 21:33N 22°29' E 113°55'0 0.0
2015-Apr-17 20:33N 22°29' E 113°55'0 0.0
2015-Apr-17 19:33N 22°29' E 113°55'0 0.0
2015-Apr-17 18:33N 22°29' E 113°55'0 0.0
2015-Apr-17 17:27N 22°29' E 113°55'0 0.0
2015-Apr-17 16:27N 22°29' E 113°55'0 0.0
2015-Apr-17 15:33N 22°29' E 113°55'0 0.0
2015-Apr-17 14:33N 22°29' E 113°55'0 0.0
2015-Apr-17 13:33N 22°29' E 113°55'0 0.0
2015-Apr-17 12:33N 22°29' E 113°55'0 0.0
2015-Apr-17 11:33N 22°29' E 113°55'0 0.0
2015-Apr-17 10:27N 22°29' E 113°55'0 0.0
2015-Apr-17 09:33N 22°29' E 113°55'1917.7
2015-Apr-17 08:27N 22°14' E 113°41'4 4.4
2015-Apr-17 07:34N 22°11' E 113°38'2323.2
2015-Apr-17 06:33N 22°29' E 113°55'0 0.4
2015-Apr-17 05:34N 22°28' E 113°55'2625.6
2015-Apr-17 04:33N 22°10' E 113°35'1514.7
2015-Apr-17 03:33N 22°19' E 113°47'1211.5
2015-Apr-17 02:32N 22°29' E 113°55'1310.1
2015-Apr-17 01:15N 22°20' E 114°05'0 0.6
2015-Apr-17 00:33N 22°20' E 114°05'1312.8
2015-Apr-16 23:31N 22°29' E 113°55'0 0.1
2015-Apr-16 22:30N 22°29' E 113°55'0 0.0
2015-Apr-16 21:29N 22°29' E 113°55'0 0.0
2015-Apr-16 20:29N 22°29' E 113°55'0 0.0
2015-Apr-16 19:29N 22°29' E 113°55'0 0.0
2015-Apr-16 18:29N 22°29' E 113°55'0 0.0
2015-Apr-16 17:29N 22°29' E 113°55'0 0.0
2015-Apr-16 16:29N 22°29' E 113°55'0 0.0
2015-Apr-16 15:29N 22°29' E 113°55'0 0.0
2015-Apr-16 14:30N 22°29' E 113°55'0 0.0
2015-Apr-16 13:33N 22°29' E 113°55'0 0.0
2015-Apr-16 11:34N 22°29' E 113°55'0 0.1
2015-Apr-16 10:34N 22°29' E 113°55'0 0.0
2015-Apr-16 09:33N 22°29' E 113°55'1917.2
2015-Apr-16 08:26N 22°14' E 113°41'5 5.8
2015-Apr-16 07:33N 22°11' E 113°37'2424.3
2015-Apr-16 06:33N 22°29' E 113°55'4 4.1
2015-Apr-16 05:34N 22°25' E 113°53'2322.6
2015-Apr-16 04:33N 22°10' E 113°35'1515.2
2015-Apr-16 03:33N 22°19' E 113°47'1111.4
2015-Apr-16 02:33N 22°29' E 113°55'10 8.6
2015-Apr-16 01:22N 22°21' E 114°02'5 6.0
2015-Apr-16 00:34N 22°19' E 114°07'1514.9
2015-Apr-15 23:34N 22°29' E 113°55'0 0.0
2015-Apr-15 22:33N 22°29' E 113°55'0 0.0
2015-Apr-15 21:32N 22°29' E 113°55'0 0.0
2015-Apr-15 20:33N 22°29' E 113°55'0 0.0
2015-Apr-15 19:33N 22°29' E 113°55'0 0.0
2015-Apr-15 18:34N 22°29' E 113°55'0 0.0
2015-Apr-15 17:34N 22°29' E 113°55'0 0.0
2015-Apr-15 16:34N 22°29' E 113°55'0 0.0
2015-Apr-15 15:33N 22°29' E 113°55'0 0.0
2015-Apr-15 14:33N 22°29' E 113°55'5 3.7
2015-Apr-15 13:14N 22°24' E 113°54'5 7.2
2015-Apr-15 12:33N 22°29' E 113°55'2018.2
2015-Apr-15 11:29N 22°14' E 113°41'3 3.7
2015-Apr-15 10:33N 22°12' E 113°38'2322.6
2015-Apr-15 09:33N 22°29' E 113°55'1 0.9
2015-Apr-15 08:34N 22°28' E 113°55'2625.5
2015-Apr-15 07:33N 22°10' E 113°35'1515.0
2015-Apr-15 06:33N 22°19' E 113°47'1211.5
2015-Apr-15 05:33N 22°29' E 113°55'0 0.1
2015-Apr-15 04:33N 22°29' E 113°55'1817.9
2015-Apr-15 03:34N 22°17' E 114°09'1615.9
2015-Apr-15 02:32N 22°26' E 113°54'12 9.1
2015-Apr-15 01:13N 22°20' E 114°05'1 1.3
2015-Apr-15 00:34N 22°19' E 114°06'1414.2
2015-Apr-14 23:34N 22°29' E 113°55'0 0.0
2015-Apr-14 22:33N 22°29' E 113°55'0 0.0
2015-Apr-14 21:34N 22°29' E 113°55'0 0.0
2015-Apr-14 20:33N 22°29' E 113°55'0 0.0
2015-Apr-14 19:33N 22°29' E 113°55'0 0.0
2015-Apr-14 18:33N 22°29' E 113°55'0 0.0
2015-Apr-14 17:33N 22°29' E 113°55'0 0.0
2015-Apr-14 16:34N 22°29' E 113°55'0 0.0
2015-Apr-14 15:33N 22°29' E 113°55'0 0.0
2015-Apr-14 14:34N 22°29' E 113°55'5 3.4
2015-Apr-14 13:09N 22°24' E 113°54'5 8.1
2015-Apr-14 12:33N 22°29' E 113°55'1817.3
2015-Apr-14 11:32N 22°14' E 113°43'5 5.6
2015-Apr-14 10:33N 22°12' E 113°38'2322.7
2015-Apr-14 09:33N 22°29' E 113°55'0 0.3
2015-Apr-14 08:34N 22°28' E 113°55'2625.8
2015-Apr-14 07:33N 22°10' E 113°35'2218.0
2015-Apr-14 06:21N 22°25' E 113°53'1311.8
2015-Apr-14 05:16N 22°20' E 114°05'3 4.0
2015-Apr-14 04:33N 22°19' E 114°08'1615.8
2015-Apr-14 03:33N 22°29' E 113°55'2322.7
2015-Apr-14 02:33N 22°12' E 113°39'3 3.1
2015-Apr-14 01:33N 22°13' E 113°41'2019.7
2015-Apr-14 00:33N 22°29' E 113°55'0 0.1
2015-Apr-13 23:33N 22°29' E 113°55'0 0.0
2015-Apr-13 22:33N 22°29' E 113°55'0 0.0
2015-Apr-13 21:33N 22°29' E 113°55'0 0.0
2015-Apr-13 20:33N 22°29' E 113°55'0 0.0
2015-Apr-13 19:33N 22°29' E 113°55'0 0.0
2015-Apr-13 18:33N 22°29' E 113°55'0 0.0
2015-Apr-13 17:33N 22°29' E 113°55'0 0.0
2015-Apr-13 16:33N 22°29' E 113°55'0 0.0
2015-Apr-13 15:33N 22°29' E 113°55'0 0.0
2015-Apr-13 14:33N 22°29' E 113°55'0 0.0
2015-Apr-13 13:33N 22°29' E 113°55'0 0.0
2015-Apr-13 12:33N 22°29' E 113°55'0 0.0
2015-Apr-13 11:33N 22°29' E 113°55'0 0.0
2015-Apr-13 10:33N 22°29' E 113°55'0 0.0
2015-Apr-13 09:33N 22°29' E 113°55'1917.3
2015-Apr-13 08:27N 22°14' E 113°42'6 7.2
2015-Apr-13 07:33N 22°11' E 113°36'2525.2
2015-Apr-13 06:33N 22°29' E 113°55'1 1.1
2015-Apr-13 05:34N 22°28' E 113°55'2525.0
2015-Apr-13 04:33N 22°10' E 113°35'1212.2
2015-Apr-13 03:33N 22°17' E 113°46'1414.2
2015-Apr-13 02:33N 22°29' E 113°55'1410.0
2015-Apr-13 01:12N 22°20' E 114°05'1 1.8
2015-Apr-13 00:33N 22°19' E 114°07'1513.4
2015-Apr-12 23:28N 22°29' E 113°55'0 0.0
2015-Apr-12 22:28N 22°29' E 113°55'0 0.0
2015-Apr-12 21:28N 22°29' E 113°55'0 0.0
2015-Apr-12 20:28N 22°29' E 113°55'0 0.0
2015-Apr-12 19:28N 22°29' E 113°55'0 0.0
2015-Apr-12 18:28N 22°29' E 113°55'0 0.0
2015-Apr-12 17:28N 22°29' E 113°55'0 0.0
2015-Apr-12 16:28N 22°29' E 113°55'0 0.0
2015-Apr-12 15:28N 22°29' E 113°55'0 0.0
2015-Apr-12 14:28N 22°29' E 113°55'6 5.5
2015-Apr-12 13:18N 22°22' E 113°55'6 8.4
2015-Apr-12 12:33N 22°29' E 113°55'1717.4
2015-Apr-12 11:32N 22°14' E 113°44'6 6.0
2015-Apr-12 10:33N 22°12' E 113°38'2322.7
2015-Apr-12 09:33N 22°29' E 113°55'5 4.5
2015-Apr-12 08:33N 22°24' E 113°53'2220.5
2015-Apr-12 07:28N 22°10' E 113°35'1516.2
2015-Apr-12 06:33N 22°19' E 113°47'1412.2
2015-Apr-12 05:26N 22°21' E 114°02'3 3.6
2015-Apr-12 04:33N 22°20' E 114°05'1313.2
2015-Apr-12 03:33N 22°29' E 113°55'2322.0
2015-Apr-12 02:31N 22°12' E 113°38'5 5.1
2015-Apr-12 01:33N 22°14' E 113°43'1816.6
2015-Apr-12 00:28N 22°29' E 113°55'0 0.0
2015-Apr-11 23:28N 22°29' E 113°55'0 0.0
2015-Apr-11 22:22N 22°29' E 113°55'0 0.0
2015-Apr-11 21:28N 22°29' E 113°55'0 0.0
2015-Apr-11 20:28N 22°29' E 113°55'0 0.0
2015-Apr-11 19:28N 22°29' E 113°55'0 0.0
2015-Apr-11 18:22N 22°29' E 113°55'0 0.0
2015-Apr-11 17:28N 22°29' E 113°55'0 0.0
2015-Apr-11 16:28N 22°29' E 113°55'0 0.0
2015-Apr-11 15:28N 22°29' E 113°55'0 0.0
2015-Apr-11 14:28N 22°29' E 113°55'7 5.7
2015-Apr-11 13:18N 22°22' E 113°55'7 8.9
2015-Apr-11 12:33N 22°29' E 113°55'1817.6
2015-Apr-11 11:33N 22°14' E 113°44'8 8.3
2015-Apr-11 10:33N 22°11' E 113°36'2525.3
2015-Apr-11 09:33N 22°29' E 113°55'3 2.6
2015-Apr-11 08:33N 22°26' E 113°54'2423.9
2015-Apr-11 07:33N 22°10' E 113°35'1514.9
2015-Apr-11 06:33N 22°19' E 113°47'1712.6
2015-Apr-11 05:15N 22°20' E 114°05'2 3.0
2015-Apr-11 04:33N 22°19' E 114°07'1514.5
2015-Apr-11 03:34N 22°28' E 113°55'2525.1
2015-Apr-11 02:33N 22°11' E 113°36'1212.3
2015-Apr-11 01:33N 22°18' E 113°46'1313.2
2015-Apr-11 00:34N 22°29' E 113°55'0 0.1
2015-Apr-10 23:31N 22°29' E 113°55'0 0.0
2015-Apr-10 22:30N 22°29' E 113°55'0 0.0
2015-Apr-10 21:30N 22°29' E 113°55'0 0.0
2015-Apr-10 20:31N 22°29' E 113°55'0 0.0
2015-Apr-10 19:30N 22°29' E 113°55'0 0.0
2015-Apr-10 18:30N 22°29' E 113°55'0 0.0
2015-Apr-10 17:30N 22°29' E 113°55'0 0.0
2015-Apr-10 16:31N 22°29' E 113°55'0 0.0
2015-Apr-10 15:30N 22°29' E 113°55'0 0.0
2015-Apr-10 14:30N 22°29' E 113°55'1313.5
2015-Apr-10 13:33N 22°18' E 113°46'1211.9
2015-Apr-10 12:34N 22°11' E 113°37'2524.5
2015-Apr-10 11:33N 22°29' E 113°55'1919.0
2015-Apr-10 10:33N 22°13' E 113°43'5 4.7
2015-Apr-10 09:33N 22°11' E 113°38'2323.1
2015-Apr-10 08:33N 22°29' E 113°55'1817.6
2015-Apr-10 07:33N 22°14' E 113°44'5 5.1
2015-Apr-10 06:34N 22°12' E 113°39'2222.3
2015-Apr-10 05:34N 22°29' E 113°55'1817.9
2015-Apr-10 04:33N 22°14' E 113°43'6 5.9
2015-Apr-10 03:34N 22°11' E 113°38'2423.4
2015-Apr-10 02:33N 22°29' E 113°55'0 0.1
2015-Apr-10 01:31N 22°29' E 113°55'0 0.0
2015-Apr-10 00:31N 22°29' E 113°55'0 0.0
2015-Apr-09 23:31N 22°29' E 113°55'0 0.0
2015-Apr-09 22:31N 22°29' E 113°55'0 0.0
2015-Apr-09 21:31N 22°29' E 113°55'0 0.0
2015-Apr-09 20:31N 22°29' E 113°55'0 0.0
2015-Apr-09 19:31N 22°29' E 113°55'0 0.0
2015-Apr-09 18:31N 22°29' E 113°55'0 0.0
2015-Apr-09 17:31N 22°29' E 113°55'  

Dump ship's entire track history